Time;durP1;ratioP1;P1;durP2;ratioP2;P2;SDS_P1;SDS_P2;PMS_P1;PMS_P2;Temp;Humidity;BMP_temperature;BMP_pressure;BME280_temperature;BME280_humidity;BME280_pressure;Samples;Min_cycle;Max_cycle;Signal;HPM_P1;HPM_P2
2024/01/13 05:01:16;;;;;;;0.90;0.80;;;0.80;97.30;;;;;;5622517;23;21033;-91
2024/01/13 05:03:41;;;;;;;1.53;1.43;;;0.80;97.30;;;;;;4930988;29;20451;-91
2024/01/13 05:06:07;;;;;;;1.40;1.30;;;0.80;97.30;;;;;;4931322;29;20578;-91
2024/01/13 05:08:32;;;;;;;1.87;1.77;;;0.80;97.30;;;;;;4933345;29;20198;-92
2024/01/13 05:10:58;;;;;;;1.20;1.10;;;0.80;97.30;;;;;;4933774;29;20246;-91
2024/01/13 05:13:24;;;;;;;1.77;1.43;;;0.80;97.30;;;;;;4944154;28;20182;-91
2024/01/13 05:15:49;;;;;;;3.23;1.53;;;0.80;97.30;;;;;;4928469;28;20215;-91
2024/01/13 05:18:15;;;;;;;1.00;0.90;;;0.80;97.30;;;;;;4928293;28;20262;-91
2024/01/13 05:23:14;;;;;;;1.37;1.27;;;0.90;97.30;;;;;;4977343;28;20237;-78
2024/01/13 05:25:40;;;;;;;3.37;1.30;;;0.90;97.30;;;;;;4977671;28;20496;-80
2024/01/13 05:28:05;;;;;;;2.63;1.33;;;0.90;97.30;;;;;;4975916;28;20185;-78
2024/01/13 05:30:32;;;;;;;1.83;1.73;;;0.90;97.30;;;;;;4987202;28;20292;-87
2024/01/13 05:32:59;;;;;;;0.90;0.80;;;0.90;97.30;;;;;;4975807;28;20270;-84
2024/01/13 05:35:25;;;;;;;1.50;1.40;;;0.90;97.30;;;;;;4977219;28;20528;-83
2024/01/13 05:37:51;;;;;;;14.43;3.10;;;0.90;97.30;;;;;;4983689;28;20417;-82
2024/01/13 05:40:16;;;;;;;2.90;1.50;;;0.90;97.30;;;;;;4980770;28;20504;-80
2024/01/13 05:42:42;;;;;;;2.53;1.87;;;0.90;97.30;;;;;;4973578;28;20189;-82
2024/01/13 05:45:08;;;;;;;3.63;1.87;;;0.90;97.30;;;;;;4990208;28;20186;-81
2024/01/13 05:47:34;;;;;;;5.47;4.10;;;0.90;97.30;;;;;;4970102;28;20329;-82
2024/01/13 05:50:01;;;;;;;1.10;1.00;;;0.90;97.30;;;;;;4984602;28;20507;-80
2024/01/13 05:52:28;;;;;;;2.00;1.70;;;0.90;97.30;;;;;;4981104;28;20464;-82
2024/01/13 05:54:53;;;;;;;1.50;1.40;;;0.90;97.30;;;;;;4978156;28;20964;-83
2024/01/13 05:57:19;;;;;;;0.90;0.80;;;0.90;97.30;;;;;;4976556;28;20414;-82
2024/01/13 05:59:44;;;;;;;3.03;2.83;;;0.90;97.30;;;;;;4981352;28;20209;-86
2024/01/13 06:02:10;;;;;;;1.57;1.47;;;0.90;97.30;;;;;;4989802;28;20205;-80
2024/01/13 06:04:35;;;;;;;1.60;1.50;;;1.00;97.30;;;;;;4993359;28;20178;-84
2024/01/13 06:07:04;;;;;;;1.37;1.33;;;1.00;97.30;;;;;;4985392;28;20273;-82
2024/01/13 06:09:30;;;;;;;1.60;1.50;;;1.00;97.30;;;;;;4990385;28;20555;-82
2024/01/13 06:11:56;;;;;;;2.47;2.27;;;1.00;97.30;;;;;;4982087;28;20466;-85
2024/01/13 06:14:22;;;;;;;4.37;4.00;;;1.00;97.30;;;;;;4976460;28;20509;-82
2024/01/13 06:16:48;;;;;;;2.00;1.90;;;1.00;97.30;;;;;;4980810;28;20273;-81
2024/01/13 06:19:14;;;;;;;1.60;1.57;;;1.00;97.30;;;;;;4980692;28;20242;-81
2024/01/13 06:21:43;;;;;;;2.20;0.97;;;1.10;97.30;;;;;;4992220;28;20515;-83
2024/01/13 06:24:12;;;;;;;1.40;1.30;;;1.10;97.30;;;;;;4984948;28;20438;-83
2024/01/13 06:26:41;;;;;;;2.47;2.00;;;1.10;97.30;;;;;;4984571;28;20421;-82
2024/01/13 06:29:10;;;;;;;1.00;0.90;;;1.10;97.30;;;;;;4984869;28;20429;-82
2024/01/13 06:31:36;;;;;;;4.47;2.10;;;1.10;97.30;;;;;;4984869;28;20535;-84
2024/01/13 06:34:02;;;;;;;1.00;0.90;;;1.10;97.30;;;;;;4991465;28;20433;-79
2024/01/13 06:36:28;;;;;;;1.20;1.10;;;1.10;97.30;;;;;;4983297;28;20197;-81
2024/01/13 06:38:54;;;;;;;1.53;1.43;;;1.10;97.30;;;;;;4982476;28;20545;-88
2024/01/13 06:41:20;;;;;;;2.73;1.67;;;1.10;97.30;;;;;;4976818;28;20674;-85
2024/01/13 06:43:45;;;;;;;1.33;1.23;;;1.10;97.30;;;;;;4990878;28;20487;-86
2024/01/13 06:46:11;;;;;;;2.17;2.00;;;1.10;97.30;;;;;;4990870;28;20177;-87
2024/01/13 06:48:37;;;;;;;1.43;1.33;;;1.10;97.30;;;;;;4967957;28;20184;-83
2024/01/13 06:51:03;;;;;;;1.07;0.97;;;1.20;97.30;;;;;;4972857;28;20476;-81
2024/01/13 06:53:28;;;;;;;0.90;0.80;;;1.20;97.30;;;;;;4986534;28;20188;-82
2024/01/13 06:55:54;;;;;;;8.20;3.63;;;1.20;97.30;;;;;;4977736;28;20712;-86
2024/01/13 06:58:19;;;;;;;2.33;2.13;;;1.20;97.30;;;;;;4974763;28;20218;-84
2024/01/13 07:00:45;;;;;;;1.57;1.33;;;1.20;97.30;;;;;;4975303;28;20206;-84
2024/01/13 07:03:11;;;;;;;1.33;1.23;;;1.20;97.30;;;;;;4991186;28;20272;-82
2024/01/13 07:05:36;;;;;;;1.83;1.20;;;1.20;97.30;;;;;;4982516;28;20185;-84
2024/01/13 07:08:04;;;;;;;1.83;1.73;;;1.20;97.30;;;;;;4986428;28;20185;-87
2024/01/13 07:10:30;;;;;;;2.20;1.83;;;1.20;97.30;;;;;;4984236;28;20205;-87
2024/01/13 07:12:56;;;;;;;12.93;4.57;;;1.20;97.30;;;;;;4990572;28;20520;-86
2024/01/13 07:15:21;;;;;;;1.17;1.07;;;1.20;97.30;;;;;;4976251;28;20426;-87
2024/01/13 07:17:47;;;;;;;2.60;2.40;;;1.20;97.30;;;;;;4987333;28;20434;-87
2024/01/13 07:20:12;;;;;;;1.87;1.77;;;1.20;97.30;;;;;;4979705;28;20280;-86
2024/01/13 07:22:38;;;;;;;1.73;1.63;;;1.20;97.30;;;;;;4980705;28;20248;-83
2024/01/13 07:25:04;;;;;;;3.77;2.80;;;1.20;97.30;;;;;;4978844;28;20189;-84
2024/01/13 07:27:31;;;;;;;1.30;1.20;;;1.20;97.30;;;;;;4981879;28;20202;-88
2024/01/13 07:29:58;;;;;;;2.47;2.23;;;1.20;97.30;;;;;;4984499;28;20476;-86
2024/01/13 07:32:23;;;;;;;1.10;1.00;;;1.30;97.30;;;;;;4975203;28;20449;-82
2024/01/13 07:34:49;;;;;;;2.10;1.90;;;1.30;97.30;;;;;;4982403;28;20577;-86
2024/01/13 07:37:14;;;;;;;1.80;1.73;;;1.30;97.30;;;;;;4978445;28;20220;-86
2024/01/13 07:39:40;;;;;;;1.03;0.93;;;1.30;97.30;;;;;;4981412;28;20190;-87
2024/01/13 07:42:06;;;;;;;1.00;0.90;;;1.30;97.30;;;;;;4983926;28;20202;-86
2024/01/13 07:44:31;;;;;;;2.87;2.07;;;1.30;97.30;;;;;;4982548;28;20186;-87
2024/01/13 07:47:01;;;;;;;2.20;1.63;;;1.30;97.30;;;;;;4974083;28;20245;-81
2024/01/13 07:49:30;;;;;;;1.70;1.17;;;1.30;97.30;;;;;;4968453;28;20524;-83
2024/01/13 07:51:56;;;;;;;1.30;1.20;;;1.30;97.30;;;;;;4976390;28;20464;-86
2024/01/13 07:54:23;;;;;;;1.10;1.00;;;1.30;97.30;;;;;;4984348;28;20948;-86
2024/01/13 07:56:49;;;;;;;10.47;1.57;;;1.30;97.30;;;;;;4964076;28;20422;-75
2024/01/13 07:59:17;;;;;;;2.50;1.83;;;1.30;97.30;;;;;;4971200;28;20437;-85
2024/01/13 08:01:43;;;;;;;2.33;2.13;;;1.30;97.30;;;;;;4979801;28;20448;-84
2024/01/13 08:04:08;;;;;;;1.70;1.60;;;1.30;97.30;;;;;;4979907;28;20441;-87
2024/01/13 08:06:35;;;;;;;6.80;5.47;;;1.30;97.30;;;;;;4973144;28;20422;-86
2024/01/13 08:09:01;;;;;;;1.97;1.60;;;1.30;97.30;;;;;;4970654;28;20189;-84
2024/01/13 08:11:26;;;;;;;2.57;1.47;;;1.30;97.30;;;;;;4970850;28;20827;-85
2024/01/13 08:13:52;;;;;;;2.20;2.00;;;1.30;97.30;;;;;;4990082;28;20417;-81
2024/01/13 08:16:17;;;;;;;1.80;1.70;;;1.30;97.30;;;;;;4982696;28;20583;-87
2024/01/13 08:18:43;;;;;;;1.80;1.70;;;1.30;97.30;;;;;;4970888;28;20233;-85
2024/01/13 08:21:08;;;;;;;1.70;1.60;;;1.40;97.30;;;;;;4976519;28;20214;-85
2024/01/13 08:23:34;;;;;;;5.17;3.17;;;1.40;97.30;;;;;;4989929;28;20186;-86
2024/01/13 08:26:01;;;;;;;1.63;1.37;;;1.40;97.30;;;;;;4982027;28;20202;-84
2024/01/13 08:28:26;;;;;;;1.60;1.10;;;1.40;97.30;;;;;;4982127;28;20193;-86
2024/01/13 08:30:52;;;;;;;1.00;0.90;;;1.40;97.30;;;;;;4981510;28;20480;-86
2024/01/13 08:33:17;;;;;;;3.50;1.10;;;1.40;97.30;;;;;;4982617;28;20217;-87
2024/01/13 08:35:43;;;;;;;1.17;1.10;;;1.40;97.30;;;;;;4979055;28;20197;-85
2024/01/13 08:38:09;;;;;;;1.73;1.57;;;1.40;97.30;;;;;;4970648;28;20305;-84
2024/01/13 08:40:35;;;;;;;1.30;1.20;;;1.40;97.30;;;;;;4978130;28;20454;-87
2024/01/13 08:43:02;;;;;;;5.90;2.20;;;1.40;97.30;;;;;;4976509;28;20421;-84
2024/01/13 08:45:29;;;;;;;8.23;2.70;;;1.40;97.30;;;;;;4990863;28;20258;-84
2024/01/13 08:47:58;;;;;;;1.60;1.10;;;1.40;97.30;;;;;;4978503;28;20428;-84
2024/01/13 08:50:24;;;;;;;4.20;1.83;;;1.50;97.30;;;;;;4981876;28;21131;-84
2024/01/13 08:52:56;;;;;;;0.90;0.80;;;1.50;97.30;;;;;;4989683;28;20818;-84
2024/01/13 08:55:22;;;;;;;1.70;1.60;;;1.50;97.30;;;;;;4990057;28;20491;-86
2024/01/13 08:57:48;;;;;;;3.47;2.33;;;1.50;97.30;;;;;;4980122;28;20797;-83
2024/01/13 09:00:14;;;;;;;1.67;1.57;;;1.50;97.30;;;;;;4976779;28;20344;-84
2024/01/13 09:02:40;;;;;;;2.40;2.20;;;1.50;97.30;;;;;;4989864;28;20435;-80
2024/01/13 09:05:06;;;;;;;2.83;2.63;;;1.50;97.30;;;;;;4989618;28;20908;-86
2024/01/13 09:07:33;;;;;;;1.20;1.10;;;1.50;97.30;;;;;;4981362;28;20933;-87
2024/01/13 09:09:59;;;;;;;2.13;1.97;;;1.60;97.30;;;;;;4979267;28;20993;-83
2024/01/13 09:12:24;;;;;;;1.53;1.43;;;1.60;97.30;;;;;;4977505;28;20441;-83
2024/01/13 09:14:51;;;;;;;1.23;1.13;;;1.60;97.30;;;;;;4985683;28;20265;-83
2024/01/13 09:17:16;;;;;;;1.73;1.63;;;1.60;97.30;;;;;;4978865;28;20177;-86
2024/01/13 09:19:42;;;;;;;1.30;1.20;;;1.60;97.30;;;;;;4968819;28;20418;-85
2024/01/13 09:22:08;;;;;;;0.90;0.80;;;1.60;97.30;;;;;;4975704;28;20369;-85
2024/01/13 09:24:33;;;;;;;4.20;1.77;;;1.60;97.30;;;;;;4981344;28;20182;-85
2024/01/13 09:26:59;;;;;;;1.40;1.37;;;1.70;97.30;;;;;;4981957;28;20182;-85
2024/01/13 09:29:24;;;;;;;2.37;2.17;;;1.70;97.30;;;;;;4980501;28;20186;-81
2024/01/13 09:31:50;;;;;;;1.30;1.20;;;1.70;97.30;;;;;;4984648;28;20205;-80
2024/01/13 09:34:16;;;;;;;1.20;1.10;;;1.70;97.30;;;;;;4992814;28;20658;-82
2024/01/13 09:36:42;;;;;;;3.87;2.40;;;1.70;97.30;;;;;;4985690;28;20194;-83
2024/01/13 09:39:11;;;;;;;3.83;2.03;;;1.70;97.30;;;;;;4981280;28;20672;-80
2024/01/13 09:41:40;;;;;;;2.70;2.50;;;1.70;97.30;;;;;;4975008;28;20450;-81
2024/01/13 09:44:22;;;;;;;2.63;2.43;;;1.70;97.30;;;;;;4988103;28;20433;-83
2024/01/13 09:46:49;;;;;;;1.20;1.10;;;1.70;97.30;;;;;;4975386;28;20433;-81
2024/01/13 09:49:17;;;;;;;2.27;2.10;;;1.70;97.30;;;;;;4993918;28;20417;-77
2024/01/13 09:51:44;;;;;;;3.70;1.53;;;1.70;97.30;;;;;;4986621;28;20472;-86
2024/01/13 09:54:12;;;;;;;1.10;1.00;;;1.70;97.30;;;;;;4986528;28;20427;-84
2024/01/13 09:56:46;;;;;;;1.20;1.10;;;1.60;97.30;;;;;;4992518;28;20413;-85
2024/01/13 09:59:12;;;;;;;1.30;1.20;;;1.60;97.30;;;;;;4986663;28;20795;-81
2024/01/13 10:01:38;;;;;;;3.03;2.63;;;1.70;97.30;;;;;;4984367;28;20457;-82
2024/01/13 10:04:04;;;;;;;2.37;2.20;;;1.70;97.30;;;;;;4985254;28;20425;-81
2024/01/13 10:06:34;;;;;;;1.00;0.90;;;1.70;97.30;;;;;;4977936;28;20960;-82
2024/01/13 10:09:01;;;;;;;2.97;2.77;;;1.70;97.30;;;;;;4973843;28;20508;-81
2024/01/13 10:11:28;;;;;;;4.43;2.47;;;1.70;97.30;;;;;;4974301;28;20470;-82
2024/01/13 10:14:04;;;;;;;2.80;2.60;;;1.70;97.30;;;;;;4972351;28;20432;-82
2024/01/13 10:16:31;;;;;;;1.40;1.30;;;1.70;97.30;;;;;;4972582;28;20436;-81
2024/01/13 10:19:03;;;;;;;2.27;2.07;;;1.70;97.30;;;;;;4973291;28;20990;-84
2024/01/13 10:21:29;;;;;;;1.70;1.50;;;1.80;97.30;;;;;;4972437;28;21076;-71
2024/01/13 10:23:56;;;;;;;1.20;1.10;;;1.80;97.30;;;;;;4972523;28;20512;-84
2024/01/13 10:26:23;;;;;;;5.70;1.87;;;1.80;97.30;;;;;;4972831;28;20192;-84
2024/01/13 10:28:50;;;;;;;2.20;2.00;;;1.80;97.30;;;;;;4978786;28;20433;-86
2024/01/13 10:31:17;;;;;;;1.20;1.10;;;1.80;97.30;;;;;;4973996;28;20477;-87
2024/01/13 10:33:47;;;;;;;1.40;1.30;;;1.80;97.30;;;;;;4971982;28;20424;-79
2024/01/13 10:36:13;;;;;;;2.30;2.10;;;1.80;97.30;;;;;;4972868;28;20441;-83
2024/01/13 10:38:42;;;;;;;2.83;2.63;;;1.90;97.30;;;;;;4973895;28;20476;-80
2024/01/13 10:41:09;;;;;;;3.23;2.60;;;1.90;97.30;;;;;;4980134;28;20450;-81
2024/01/13 10:43:38;;;;;;;2.07;1.93;;;1.90;97.30;;;;;;4973091;28;20429;-77
2024/01/13 10:46:12;;;;;;;1.37;1.10;;;1.90;97.30;;;;;;4964120;28;20461;-84
2024/01/13 10:48:47;;;;;;;0.90;0.80;;;1.90;97.30;;;;;;4972445;28;20434;-80
2024/01/13 10:51:26;;;;;;;2.10;1.57;;;1.90;97.30;;;;;;4982996;28;20475;-81
2024/01/13 10:53:54;;;;;;;1.30;1.30;;;2.00;97.30;;;;;;4980661;28;20429;-80
2024/01/13 10:56:20;;;;;;;2.13;1.97;;;2.00;97.30;;;;;;4980672;28;20421;-79
2024/01/13 10:58:46;;;;;;;3.43;2.67;;;2.10;97.30;;;;;;4971209;28;20429;-81
2024/01/13 11:01:12;;;;;;;3.70;2.40;;;2.10;97.30;;;;;;4971295;28;20457;-80
2024/01/13 11:03:40;;;;;;;3.60;2.33;;;2.10;97.30;;;;;;4971357;28;20717;-81
2024/01/13 11:06:06;;;;;;;0.90;0.90;;;2.10;97.30;;;;;;4971251;28;20554;-84
2024/01/13 11:08:32;;;;;;;1.10;1.00;;;2.10;97.30;;;;;;4971537;28;20433;-82
2024/01/13 11:11:00;;;;;;;1.93;1.87;;;2.10;97.30;;;;;;4971495;28;20589;-80
2024/01/13 11:13:29;;;;;;;2.63;2.40;;;2.10;97.30;;;;;;4972463;28;20470;-80
2024/01/13 11:16:04;;;;;;;3.70;1.40;;;2.10;97.30;;;;;;4972309;28;20414;-82
2024/01/13 11:18:45;;;;;;;2.80;2.60;;;2.10;97.30;;;;;;4980460;28;20418;-80
2024/01/13 11:21:11;;;;;;;1.20;1.10;;;2.00;97.30;;;;;;4972424;28;20477;-83
2024/01/13 11:23:57;;;;;;;1.83;1.73;;;2.00;97.30;;;;;;4980377;28;20440;-77
2024/01/13 11:26:36;;;;;;;1.10;1.00;;;2.00;97.30;;;;;;4979924;28;20441;-81
2024/01/13 11:29:14;;;;;;;2.50;2.30;;;2.00;97.30;;;;;;4978915;28;20522;-78
2024/01/13 11:31:44;;;;;;;1.97;1.87;;;2.00;97.30;;;;;;4979930;28;20515;-86
2024/01/13 11:36:44;;;;;;;1.50;1.40;;;2.10;97.30;;;;;;4969052;28;20466;-68
2024/01/13 11:39:10;;;;;;;3.43;2.30;;;2.20;97.30;;;;;;4979011;28;20418;-69
2024/01/13 11:41:40;;;;;;;1.33;1.23;;;2.20;97.30;;;;;;4974911;28;20471;-72
2024/01/13 11:44:07;;;;;;;1.67;1.57;;;2.20;97.30;;;;;;4980338;28;20550;-67
2024/01/13 11:46:38;;;;;;;1.40;1.30;;;2.20;97.30;;;;;;4980612;28;20430;-69
2024/01/13 11:49:07;;;;;;;1.10;1.00;;;2.30;97.30;;;;;;4986460;28;20429;-67
2024/01/13 11:51:56;;;;;;;2.30;1.53;;;2.30;97.30;;;;;;4980876;28;20476;-72
2024/01/13 11:54:21;;;;;;;1.17;1.07;;;2.20;97.30;;;;;;4965042;28;20418;-68
2024/01/13 11:56:48;;;;;;;2.50;2.30;;;2.20;97.30;;;;;;4986187;28;20475;-68
2024/01/13 11:59:17;;;;;;;1.50;1.40;;;2.20;97.30;;;;;;4975352;28;20613;-68
2024/01/13 12:01:46;;;;;;;3.30;2.60;;;2.20;97.30;;;;;;4985576;28;20441;-68
2024/01/13 12:04:14;;;;;;;7.47;3.40;;;2.10;97.30;;;;;;4983228;28;20429;-69
2024/01/13 12:06:42;;;;;;;2.80;2.60;;;2.10;97.30;;;;;;4983882;28;20456;-69
2024/01/13 12:09:08;;;;;;;7.80;2.50;;;2.10;97.30;;;;;;4970575;28;20426;-69
2024/01/13 12:11:33;;;;;;;1.60;1.40;;;2.10;97.30;;;;;;4975762;28;20718;-68
2024/01/13 12:14:01;;;;;;;16.23;2.43;;;2.10;97.30;;;;;;4987731;28;20457;-68
2024/01/13 12:16:28;;;;;;;1.67;1.57;;;2.00;97.30;;;;;;4979419;28;20788;-69
2024/01/13 12:18:54;;;;;;;3.73;2.50;;;2.00;97.30;;;;;;4978946;28;20496;-69
2024/01/13 12:21:19;;;;;;;1.23;1.13;;;2.00;97.30;;;;;;4974425;28;20985;-72
2024/01/13 12:23:45;;;;;;;4.30;2.33;;;2.00;97.30;;;;;;4969962;28;20465;-68
2024/01/13 12:26:12;;;;;;;3.10;2.90;;;2.00;97.30;;;;;;4986537;28;20185;-69
2024/01/13 12:28:39;;;;;;;3.47;3.27;;;2.10;97.30;;;;;;4980379;28;20186;-68
2024/01/13 12:31:06;;;;;;;4.30;3.00;;;2.10;97.30;;;;;;4972729;28;20472;-70
2024/01/13 12:33:32;;;;;;;1.23;1.13;;;2.10;97.30;;;;;;4986615;28;20984;-68
2024/01/13 12:36:02;;;;;;;3.10;2.70;;;2.10;97.30;;;;;;4979540;28;20480;-68
2024/01/13 12:38:28;;;;;;;2.30;1.80;;;2.00;97.30;;;;;;4979488;28;20941;-70
2024/01/13 12:40:55;;;;;;;1.27;1.17;;;2.00;97.30;;;;;;4986995;28;20960;-69
2024/01/13 12:43:21;;;;;;;3.77;1.17;;;2.00;97.30;;;;;;4987817;28;20486;-75
2024/01/13 12:45:49;;;;;;;3.13;1.50;;;2.00;97.30;;;;;;4971879;28;20434;-68
2024/01/13 12:48:18;;;;;;;1.77;1.67;;;2.00;97.30;;;;;;4975502;28;20553;-67
2024/01/13 12:50:44;;;;;;;1.97;1.87;;;2.00;97.30;;;;;;4962506;28;20489;-68
2024/01/13 12:53:10;;;;;;;3.13;2.30;;;2.00;97.30;;;;;;4980078;28;20425;-68
2024/01/13 12:55:37;;;;;;;1.83;1.77;;;2.00;97.30;;;;;;4971914;28;20193;-66
2024/01/13 12:58:03;;;;;;;2.20;1.27;;;2.00;97.30;;;;;;4967681;28;20477;-68
2024/01/13 13:00:29;;;;;;;1.20;1.10;;;2.00;97.30;;;;;;4983206;28;20451;-68
2024/01/13 13:02:55;;;;;;;2.50;2.30;;;2.00;97.30;;;;;;4974044;28;20512;-67
2024/01/13 13:05:24;;;;;;;1.80;1.70;;;2.00;97.30;;;;;;4977917;28;20592;-72
2024/01/13 13:07:51;;;;;;;4.80;2.90;;;2.00;97.30;;;;;;4980788;28;20726;-67
2024/01/13 13:10:20;;;;;;;3.13;1.43;;;2.00;97.30;;;;;;4982676;28;20461;-67
2024/01/13 13:12:49;;;;;;;1.57;1.53;;;2.00;97.30;;;;;;4976808;28;20455;-68
2024/01/13 13:15:15;;;;;;;1.87;1.80;;;2.00;97.30;;;;;;4973070;28;20869;-67
2024/01/13 13:17:41;;;;;;;1.83;1.73;;;2.00;97.30;;;;;;4982225;28;20501;-66
2024/01/13 13:20:08;;;;;;;1.73;1.63;;;2.00;97.30;;;;;;4977546;28;20482;-74
2024/01/13 13:22:37;;;;;;;2.90;2.70;;;2.00;97.30;;;;;;4983916;28;20194;-67
2024/01/13 13:25:07;;;;;;;6.90;3.63;;;2.00;97.30;;;;;;4981211;28;20440;-69
2024/01/13 13:27:35;;;;;;;3.60;3.40;;;2.00;97.30;;;;;;4983085;28;20413;-67
2024/01/13 13:30:04;;;;;;;2.87;2.70;;;2.00;97.30;;;;;;4988858;28;20458;-67
2024/01/13 13:32:30;;;;;;;1.27;1.17;;;2.00;97.30;;;;;;4988631;28;20460;-66
2024/01/13 13:34:56;;;;;;;4.77;4.47;;;2.00;97.30;;;;;;4986814;28;20511;-66
2024/01/13 13:37:22;;;;;;;4.40;2.83;;;2.00;97.30;;;;;;4978401;28;20553;-66
2024/01/13 13:39:47;;;;;;;4.73;2.50;;;2.00;97.30;;;;;;4971353;28;20804;-68
2024/01/13 13:42:14;;;;;;;3.67;2.20;;;2.00;97.30;;;;;;4969061;28;20205;-68
2024/01/13 13:44:40;;;;;;;4.43;1.73;;;2.00;97.30;;;;;;4974845;28;20269;-68
2024/01/13 13:47:06;;;;;;;5.70;2.83;;;2.00;97.30;;;;;;4985209;28;20465;-67
2024/01/13 13:49:31;;;;;;;16.63;5.87;;;2.00;97.30;;;;;;4984781;28;20452;-69
2024/01/13 13:51:57;;;;;;;11.20;4.20;;;2.00;97.30;;;;;;4980759;28;20217;-67
2024/01/13 13:54:23;;;;;;;4.93;2.67;;;2.00;97.30;;;;;;4982755;28;20538;-67
2024/01/13 13:56:49;;;;;;;2.47;2.27;;;2.00;97.30;;;;;;4977360;28;20277;-68
2024/01/13 13:59:15;;;;;;;1.47;1.40;;;1.90;97.30;;;;;;4987612;28;20513;-67
2024/01/13 14:01:41;;;;;;;2.30;2.00;;;1.90;97.30;;;;;;4980546;28;20697;-67
2024/01/13 14:04:09;;;;;;;1.97;1.87;;;1.90;97.30;;;;;;4973123;28;20961;-67
2024/01/13 14:06:35;;;;;;;9.80;3.50;;;1.90;97.30;;;;;;4980633;28;20421;-70
2024/01/13 14:09:01;;;;;;;14.53;5.07;;;1.90;97.30;;;;;;4978739;28;20483;-68
2024/01/13 14:11:27;;;;;;;1.30;1.20;;;1.90;97.30;;;;;;4980132;28;20470;-68
2024/01/13 14:13:53;;;;;;;3.53;2.33;;;1.90;97.30;;;;;;4983179;28;20862;-67
2024/01/13 14:16:20;;;;;;;2.40;2.20;;;1.90;97.30;;;;;;4977663;28;20417;-74
2024/01/13 14:18:50;;;;;;;6.50;5.17;;;1.90;97.30;;;;;;4969408;28;20269;-68
2024/01/13 14:21:16;;;;;;;3.50;2.23;;;1.80;97.30;;;;;;4962889;28;21075;-80
2024/01/13 14:23:42;;;;;;;3.07;2.90;;;1.80;97.30;;;;;;4969085;28;20933;-74
2024/01/13 14:26:11;;;;;;;3.83;2.33;;;1.80;97.30;;;;;;4970002;28;20441;-72
2024/01/13 14:28:36;;;;;;;8.43;4.30;;;1.80;97.30;;;;;;4971890;28;20430;-73
2024/01/13 14:31:03;;;;;;;5.30;2.50;;;1.80;97.30;;;;;;4976506;28;20473;-68
2024/01/13 14:33:32;;;;;;;2.47;2.27;;;1.80;97.30;;;;;;4976644;28;20179;-69
2024/01/13 14:36:02;;;;;;;3.83;3.63;;;1.70;97.30;;;;;;4979176;28;20548;-67
2024/01/13 14:38:31;;;;;;;1.13;1.03;;;1.70;97.30;;;;;;4982561;28;20423;-67
2024/01/13 14:40:56;;;;;;;5.90;5.23;;;1.70;97.30;;;;;;4976956;28;20445;-67
2024/01/13 14:43:22;;;;;;;2.00;1.87;;;1.70;97.30;;;;;;4973991;28;20463;-68
2024/01/13 14:45:50;;;;;;;15.03;3.80;;;1.70;97.30;;;;;;4980116;28;20209;-69
2024/01/13 14:48:16;;;;;;;1.27;1.17;;;1.70;97.30;;;;;;4978787;28;20420;-68
2024/01/13 14:50:42;;;;;;;2.17;1.43;;;1.60;97.30;;;;;;4972969;28;21014;-70
2024/01/13 14:53:07;;;;;;;8.90;4.00;;;1.60;97.30;;;;;;4972809;28;20440;-69
2024/01/13 14:55:34;;;;;;;4.97;4.67;;;1.60;97.30;;;;;;4977532;28;20231;-70
2024/01/13 14:57:59;;;;;;;2.40;1.60;;;1.60;97.30;;;;;;4977961;28;20177;-71
2024/01/13 15:00:25;;;;;;;4.83;4.53;;;1.60;97.30;;;;;;4986427;28;20437;-76
2024/01/13 15:02:50;;;;;;;8.17;2.13;;;1.60;97.30;;;;;;4986669;28;20662;-72
2024/01/13 15:05:16;;;;;;;3.33;2.20;;;1.60;97.30;;;;;;4979542;28;20545;-71
2024/01/13 15:07:41;;;;;;;4.93;3.17;;;1.60;97.30;;;;;;4970202;28;20182;-68
2024/01/13 15:10:07;;;;;;;2.40;2.20;;;1.60;97.30;;;;;;4977719;28;20268;-68
2024/01/13 15:12:33;;;;;;;3.70;3.50;;;1.60;97.30;;;;;;4970309;28;20245;-69
2024/01/13 15:14:59;;;;;;;2.20;1.33;;;1.50;97.30;;;;;;4979892;28;20439;-73
2024/01/13 15:17:24;;;;;;;2.30;2.10;;;1.50;97.30;;;;;;4989217;28;20416;-68
2024/01/13 15:19:50;;;;;;;2.20;2.00;;;1.50;97.30;;;;;;4990928;28;20236;-67
2024/01/13 15:22:15;;;;;;;3.37;2.53;;;1.50;97.30;;;;;;4976546;28;20195;-67
2024/01/13 15:24:41;;;;;;;5.00;3.30;;;1.50;97.30;;;;;;4969940;28;20218;-67
2024/01/13 15:27:06;;;;;;;2.23;2.03;;;1.50;97.30;;;;;;4971287;28;20634;-71
2024/01/13 15:29:32;;;;;;;2.27;2.07;;;1.50;97.30;;;;;;4984318;28;20217;-73
2024/01/13 15:31:57;;;;;;;1.10;1.00;;;1.50;97.30;;;;;;4985493;28;20211;-71
2024/01/13 15:34:23;;;;;;;2.30;2.10;;;1.50;97.30;;;;;;4985102;28;20175;-71
2024/01/13 15:36:49;;;;;;;8.00;1.83;;;1.60;97.30;;;;;;4984578;28;20209;-71
2024/01/13 15:39:16;;;;;;;7.03;3.63;;;1.60;97.30;;;;;;4978565;28;20225;-72
2024/01/13 15:41:42;;;;;;;1.10;1.00;;;1.60;97.30;;;;;;4983696;28;20561;-73
2024/01/13 15:44:07;;;;;;;1.77;1.67;;;1.60;97.30;;;;;;4981888;28;20436;-73
2024/01/13 15:46:33;;;;;;;2.00;1.87;;;1.60;97.30;;;;;;4985400;28;20421;-72
2024/01/13 15:49:01;;;;;;;3.23;2.70;;;1.70;97.30;;;;;;4986153;28;20684;-68
2024/01/13 15:51:27;;;;;;;1.50;1.40;;;1.70;97.30;;;;;;4970728;28;20501;-70
2024/01/13 15:53:52;;;;;;;2.70;1.53;;;1.70;97.30;;;;;;4978146;28;20483;-75
2024/01/13 15:56:18;;;;;;;2.30;2.10;;;1.70;97.30;;;;;;4977756;28;20178;-71
2024/01/13 15:58:43;;;;;;;1.40;1.30;;;1.70;97.30;;;;;;4969293;28;20654;-73
2024/01/13 16:01:11;;;;;;;1.43;1.33;;;1.70;97.30;;;;;;4968547;28;20210;-70
2024/01/13 16:03:37;;;;;;;3.23;1.43;;;1.80;97.30;;;;;;4970619;28;20209;-77
2024/01/13 16:06:03;;;;;;;2.20;2.03;;;1.80;97.30;;;;;;4976709;28;20436;-74
2024/01/13 16:08:29;;;;;;;1.57;1.47;;;1.80;97.30;;;;;;4982499;28;20427;-73
2024/01/13 16:10:54;;;;;;;7.27;1.63;;;1.80;97.30;;;;;;4988532;28;20567;-70
2024/01/13 16:13:20;;;;;;;2.57;2.37;;;1.80;97.30;;;;;;4972220;28;20177;-72
2024/01/13 16:15:46;;;;;;;2.17;2.00;;;1.80;97.30;;;;;;4982112;28;20178;-72
2024/01/13 16:18:11;;;;;;;2.40;2.20;;;1.80;97.30;;;;;;4979977;28;20185;-72
2024/01/13 16:20:37;;;;;;;1.67;1.57;;;1.80;97.30;;;;;;4976088;28;20437;-72
2024/01/13 16:23:05;;;;;;;1.33;1.23;;;1.80;97.30;;;;;;4969796;28;20239;-76
2024/01/13 16:25:31;;;;;;;1.73;1.57;;;1.80;97.30;;;;;;4975779;28;20430;-69
2024/01/13 16:27:57;;;;;;;2.03;1.90;;;1.80;97.30;;;;;;4968685;28;20433;-70
2024/01/13 16:30:23;;;;;;;1.03;0.93;;;1.80;97.30;;;;;;4980623;28;20623;-74
2024/01/13 16:32:48;;;;;;;1.23;1.13;;;1.80;97.30;;;;;;4987940;28;20913;-74
2024/01/13 16:35:14;;;;;;;7.33;1.90;;;1.80;97.30;;;;;;4978298;28;20236;-70
2024/01/13 16:37:40;;;;;;;2.27;2.07;;;1.90;97.30;;;;;;4974803;28;20178;-73
2024/01/13 16:40:06;;;;;;;1.60;1.20;;;1.90;97.30;;;;;;4978237;28;20552;-72
2024/01/13 16:42:31;;;;;;;2.13;1.97;;;1.90;97.30;;;;;;4988135;28;20177;-70
2024/01/13 16:44:57;;;;;;;3.53;2.17;;;1.90;97.30;;;;;;4980411;28;20434;-71
2024/01/13 16:47:22;;;;;;;1.87;1.77;;;1.90;97.30;;;;;;4980481;28;20185;-70
2024/01/13 16:49:48;;;;;;;2.00;1.93;;;1.90;97.30;;;;;;4980845;28;20241;-70
2024/01/13 16:52:13;;;;;;;3.57;3.37;;;1.90;97.30;;;;;;4978325;28;20206;-69
2024/01/13 16:54:42;;;;;;;1.37;1.30;;;1.90;97.30;;;;;;4974915;28;20217;-70
2024/01/13 16:57:08;;;;;;;1.67;1.57;;;1.90;97.30;;;;;;4969213;28;20189;-70
2024/01/13 16:59:34;;;;;;;1.67;1.57;;;1.90;97.30;;;;;;4981447;28;20423;-69
2024/01/13 17:01:59;;;;;;;5.23;3.30;;;2.00;97.30;;;;;;4981179;28;20469;-70
2024/01/13 17:04:25;;;;;;;2.80;2.60;;;2.00;97.30;;;;;;4977346;28;20186;-73
2024/01/13 17:06:51;;;;;;;1.20;1.10;;;2.00;97.30;;;;;;4982874;28;20633;-70
2024/01/13 17:09:16;;;;;;;1.20;1.10;;;2.00;97.30;;;;;;4980731;28;20198;-74
2024/01/13 17:11:42;;;;;;;2.90;2.70;;;2.10;97.30;;;;;;4979043;28;20256;-71
2024/01/13 17:14:07;;;;;;;3.13;1.93;;;2.00;97.30;;;;;;4973313;28;20178;-70
2024/01/13 17:16:33;;;;;;;5.17;1.73;;;2.10;97.30;;;;;;4973493;28;20272;-71
2024/01/13 17:18:58;;;;;;;13.63;2.33;;;2.10;97.30;;;;;;4974367;28;20220;-70
2024/01/13 17:21:24;;;;;;;1.53;1.43;;;2.10;97.30;;;;;;4975734;28;20269;-69
2024/01/13 17:23:52;;;;;;;1.73;1.40;;;2.10;97.30;;;;;;4974837;28;20686;-72
2024/01/13 17:26:18;;;;;;;10.17;1.97;;;2.20;97.30;;;;;;4978706;28;20214;-68
2024/01/13 17:28:44;;;;;;;4.47;2.70;;;2.20;97.30;;;;;;4976239;28;20480;-72
2024/01/13 17:31:09;;;;;;;2.47;2.30;;;2.20;97.30;;;;;;4975977;28;20472;-69
2024/01/13 17:33:35;;;;;;;1.50;1.40;;;2.20;97.30;;;;;;4971741;28;20182;-70
2024/01/13 17:36:00;;;;;;;1.50;1.40;;;2.20;97.30;;;;;;4977107;28;20721;-69
2024/01/13 17:38:26;;;;;;;1.27;1.17;;;2.30;97.30;;;;;;4981869;28;20565;-74
2024/01/13 17:40:51;;;;;;;9.27;2.60;;;2.20;97.30;;;;;;4972630;28;20207;-71
2024/01/13 17:43:17;;;;;;;1.20;1.10;;;2.30;97.30;;;;;;4969260;28;20592;-70
2024/01/13 17:45:42;;;;;;;1.67;1.50;;;2.30;97.30;;;;;;4981554;28;20190;-72
2024/01/13 17:48:09;;;;;;;1.23;1.13;;;2.30;97.30;;;;;;4980376;28;20645;-70
2024/01/13 17:50:35;;;;;;;3.00;2.80;;;2.30;97.30;;;;;;4978050;28;20213;-70
2024/01/13 17:53:01;;;;;;;1.83;1.73;;;2.30;97.30;;;;;;4962003;28;20987;-71
2024/01/13 17:55:26;;;;;;;1.73;1.67;;;2.20;97.30;;;;;;4990356;22;20604;-77
2024/01/13 17:57:52;;;;;;;2.43;1.63;;;2.30;97.30;;;;;;4958990;28;20628;-75
2024/01/13 18:00:18;;;;;;;1.70;1.50;;;2.30;97.30;;;;;;4954364;28;20191;-74